Date,TemperatureHighF,TemperatureAvgF,TemperatureLowF,DewpointHighF,DewpointAvgF,DewpointLowF,HumidityHigh,HumidityAvg,HumidityLow,PressureMaxIn,PressureMinIn,WindSpeedMaxMPH,WindSpeedAvgMPH,GustSpeedMaxMPH,PrecipitationSumIn
2013-11-1,53.1,36.6,27.0,37.7,27.9,21.9,87,72,39,30.21,30.10,4,1,10,0.00
2013-11-2,46.0,37.2,26.4,39.0,29.4,20.2,85,74,43,30.10,29.65,7,3,17,0.02
2013-11-3,42.8,36.8,30.9,32.1,27.9,24.0,86,71,47,29.97,29.71,7,2,16,0.00
2013-11-4,39.2,31.4,24.8,32.5,25.1,20.1,87,78,59,30.10,29.96,6,1,11,0.01
2013-11-5,38.1,33.2,28.0,27.0,20.8,14.3,86,61,40,30.14,30.10,6,2,12,0.00
2013-11-6,40.3,31.6,24.6,34.0,27.1,20.5,86,83,74,30.34,30.12,4,1,8,0.07
2013-11-7,39.4,31.2,23.9,37.2,27.5,19.5,93,86,82,30.32,29.78,6,2,11,0.02
2013-11-8,48.2,41.0,35.6,35.4,31.7,25.9,89,70,48,30.12,29.83,6,2,24,0.00
2013-11-9,47.3,36.5,29.8,35.8,28.0,25.0,84,71,54,30.21,30.12,6,1,9,0.00
2013-11-10,36.5,34.7,33.1,32.4,30.8,28.0,87,86,74,30.25,30.13,8,3,14,0.43
2013-11-11,41.2,35.9,30.6,36.5,31.9,27.2,88,85,77,30.43,30.25,9,3,14,0.02
2013-11-12,43.2,37.8,33.8,37.4,33.6,30.0,89,84,77,30.41,30.28,5,2,9,0.00
2013-11-13,54.9,43.3,35.2,41.5,33.5,29.4,92,70,43,30.29,30.20,9,2,21,0.02
2013-11-14,51.4,43.5,37.2,35.3,30.5,22.6,73,60,44,30.22,29.83,8,2,15,0.00
2013-11-15,42.1,37.7,33.3,29.8,27.2,22.9,81,66,49,29.83,29.41,7,2,14,0.02
2013-11-16,38.5,35.3,32.0,34.1,28.8,22.6,86,77,59,29.62,29.28,4,2,13,0.13
2013-11-17,43.3,35.3,27.7,30.6,25.2,20.2,86,68,43,29.89,29.62,8,2,21,0.01
2013-11-18,47.8,44.0,40.3,34.9,30.1,26.6,74,58,46,29.94,29.74,6,2,20,0.00
2013-11-19,54.5,46.4,40.1,37.2,33.7,28.8,75,61,47,29.74,29.57,9,3,20,0.00
2013-11-20,45.7,30.3,14.0,31.6,10.1,-5.1,73,44,22,30.33,29.68,15,5,24,0.00
2013-11-21,28.2,17.2,9.7,11.6,3.8,-3.4,66,55,35,30.57,30.33,8,2,13,0.00
2013-11-22,30.2,18.2,9.7,14.0,7.1,-0.3,68,62,47,30.67,30.56,9,2,14,0.00
2013-11-23,33.6,18.8,9.7,15.1,7.9,0.0,71,62,44,30.61,30.32,6,1,11,0.00
2013-11-24,32.9,22.0,15.3,18.5,12.3,6.8,75,66,53,30.33,30.24,7,1,11,0.00
2013-11-25,35.1,22.8,14.4,20.6,14.1,7.4,77,69,52,30.44,30.32,6,1,9,0.00
2013-11-26,36.0,24.1,15.4,24.5,17.2,9.0,81,75,61,30.40,30.18,3,0,7,0.00
2013-11-27,27.1,25.0,23.0,21.6,19.6,18.1,82,80,76,30.23,30.18,6,3,11,0.00
2013-11-28,26.6,24.3,21.7,21.7,19.4,16.9,82,81,80,30.21,30.16,5,3,9,0.00
2013-11-29,29.1,27.2,25.5,25.5,22.8,20.8,86,83,81,30.22,30.17,4,1,8,0.00
2013-11-30,34.2,31.0,28.8,30.4,27.4,25.1,87,86,85,30.22,30.14,3,1,7,0.01